Time;durP1;ratioP1;P1;durP2;ratioP2;P2;SDS_P1;SDS_P2;PMS_P1;PMS_P2;Temp;Humidity;BMP_temperature;BMP_pressure;BME280_temperature;BME280_humidity;BME280_pressure;Samples;Min_cycle;Max_cycle;Signal;HPM_P1;HPM_P2
2023/06/11 00:02:21;;;;;;;13.38;10.25;;;21.40;87.40;;;;;;5024574;28;20064;-50
2023/06/11 00:05:09;;;;;;;17.05;10.73;;;21.30;87.10;;;;;;5020318;28;20104;-49
2023/06/11 00:07:56;;;;;;;11.52;10.32;;;21.30;87.30;;;;;;5027818;28;20026;-49
2023/06/11 00:10:41;;;;;;;11.02;9.93;;;21.30;87.10;;;;;;5026250;28;21416;-49
2023/06/11 00:13:28;;;;;;;10.65;9.57;;;21.30;87.10;;;;;;5023896;28;20497;-48
2023/06/11 00:16:14;;;;;;;13.85;10.32;;;21.20;86.80;;;;;;5023741;28;20030;-47
2023/06/11 00:19:00;;;;;;;11.52;10.05;;;21.20;86.40;;;;;;5020284;28;20124;-48
2023/06/11 00:21:46;;;;;;;13.23;10.18;;;21.20;86.60;;;;;;5023014;28;20021;-51
2023/06/11 00:24:32;;;;;;;13.70;10.15;;;21.10;86.40;;;;;;5026322;28;20045;-48
2023/06/11 00:27:18;;;;;;;14.25;10.32;;;21.10;86.20;;;;;;5030335;28;20028;-49
2023/06/11 00:30:06;;;;;;;26.35;22.00;;;21.10;86.30;;;;;;5030791;28;20079;-50
2023/06/11 00:32:52;;;;;;;14.82;13.32;;;21.10;86.10;;;;;;5031694;28;20026;-49
2023/06/11 00:35:38;;;;;;;21.90;15.07;;;21.00;86.20;;;;;;5012549;28;20100;-49
2023/06/11 00:38:24;;;;;;;15.43;11.88;;;21.00;86.10;;;;;;5011839;28;20030;-50
2023/06/11 00:41:09;;;;;;;12.75;11.02;;;21.00;86.40;;;;;;5012121;28;20030;-48
2023/06/11 00:43:56;;;;;;;11.50;10.30;;;20.90;85.80;;;;;;5011941;28;20456;-48
2023/06/11 00:46:42;;;;;;;13.13;10.27;;;20.90;85.50;;;;;;5022911;28;20064;-50
2023/06/11 00:49:28;;;;;;;10.10;9.02;;;20.90;85.60;;;;;;5030820;28;20099;-49
2023/06/11 00:52:15;;;;;;;11.18;9.70;;;20.90;85.50;;;;;;5031459;28;20083;-55
2023/06/11 00:55:02;;;;;;;12.25;9.63;;;20.90;85.50;;;;;;5031900;28;20542;-51
2023/06/11 00:57:49;;;;;;;13.45;12.05;;;20.90;85.50;;;;;;5024860;28;20030;-55
2023/06/11 01:00:35;;;;;;;16.65;11.77;;;20.90;85.60;;;;;;5011996;28;20443;-51
2023/06/11 01:03:26;;;;;;;13.43;11.07;;;20.90;85.40;;;;;;5012787;28;20019;-55
2023/06/11 01:06:21;;;;;;;17.25;11.73;;;21.00;85.50;;;;;;5011419;28;20049;-51
2023/06/11 01:09:08;;;;;;;16.33;13.00;;;21.00;84.90;;;;;;5011864;28;20026;-54
2023/06/11 01:11:58;;;;;;;16.80;10.02;;;20.90;84.60;;;;;;5012614;28;20038;-46
2023/06/11 01:14:44;;;;;;;11.52;10.00;;;20.80;84.90;;;;;;5035141;28;20116;-46
2023/06/11 01:18:02;;;;;;;11.57;9.73;;;20.80;84.80;;;;;;5034753;28;20037;-47
2023/06/11 01:21:04;;;;;;;10.70;9.60;;;20.70;84.90;;;;;;5033834;28;20409;-47
2023/06/11 01:24:11;;;;;;;13.55;10.07;;;20.60;85.40;;;;;;5033451;28;20038;-49
2023/06/11 01:27:10;;;;;;;13.48;9.63;;;20.70;85.60;;;;;;5030474;28;20516;-47
2023/06/11 01:29:58;;;;;;;12.35;10.07;;;20.70;85.90;;;;;;5032765;28;20035;-48
2023/06/11 01:32:55;;;;;;;10.38;9.27;;;20.70;85.80;;;;;;5030677;28;20029;-49
2023/06/11 01:35:42;;;;;;;10.38;9.32;;;20.60;86.10;;;;;;5031774;28;20033;-46
2023/06/11 01:38:34;;;;;;;11.93;9.10;;;20.70;86.20;;;;;;5032138;28;20026;-50
2023/06/11 01:41:20;;;;;;;11.48;9.43;;;20.70;86.10;;;;;;5016124;28;20540;-49
2023/06/11 01:44:06;;;;;;;11.50;9.68;;;20.70;86.10;;;;;;5015373;28;20472;-52
2023/06/11 01:46:52;;;;;;;23.17;16.95;;;20.70;86.30;;;;;;5015606;28;20088;-46
2023/06/11 01:49:38;;;;;;;23.60;19.08;;;20.60;86.30;;;;;;5015201;28;20037;-46
2023/06/11 01:52:24;;;;;;;18.10;14.18;;;20.60;86.50;;;;;;5015269;28;20041;-46
2023/06/11 01:55:10;;;;;;;13.70;11.90;;;20.60;86.80;;;;;;5015757;28;20038;-45
2023/06/11 01:57:56;;;;;;;13.00;11.48;;;20.50;87.50;;;;;;5015494;28;20030;-47
2023/06/11 02:00:43;;;;;;;13.57;11.95;;;20.50;87.00;;;;;;5018180;28;20694;-46
2023/06/11 02:03:29;;;;;;;13.18;10.93;;;20.40;87.40;;;;;;5025798;28;20025;-52
2023/06/11 02:06:15;;;;;;;13.15;10.80;;;20.40;87.50;;;;;;5039696;28;20033;-48
2023/06/11 02:09:01;;;;;;;13.70;10.95;;;20.40;87.60;;;;;;5038178;28;20026;-47
2023/06/11 02:11:47;;;;;;;11.65;10.55;;;20.40;87.70;;;;;;5020628;28;20033;-49
2023/06/11 02:14:33;;;;;;;13.48;10.70;;;20.30;88.10;;;;;;5015800;28;20030;-52
2023/06/11 02:17:19;;;;;;;10.85;9.75;;;20.30;88.60;;;;;;5014710;28;20037;-48
2023/06/11 02:20:06;;;;;;;11.60;10.45;;;20.20;89.30;;;;;;5014187;28;20454;-46
2023/06/11 02:22:52;;;;;;;11.60;10.50;;;20.20;90.00;;;;;;5015267;28;20113;-47
2023/06/11 02:25:38;;;;;;;11.68;10.10;;;20.10;90.10;;;;;;5014236;28;20093;-47
2023/06/11 02:28:23;;;;;;;11.73;10.30;;;20.00;90.40;;;;;;5014408;28;20034;-48
2023/06/11 02:31:09;;;;;;;14.23;11.38;;;19.90;90.50;;;;;;5019656;28;20028;-51
2023/06/11 02:33:55;;;;;;;14.50;11.88;;;19.70;90.80;;;;;;5033391;28;20045;-48
2023/06/11 02:36:41;;;;;;;15.52;13.30;;;19.50;90.90;;;;;;5033055;28;20144;-47
2023/06/11 02:39:27;;;;;;;12.68;11.38;;;19.40;91.10;;;;;;5033595;28;20025;-47
2023/06/11 02:42:13;;;;;;;11.65;10.45;;;19.20;91.60;;;;;;5035236;28;20033;-47
2023/06/11 02:44:59;;;;;;;13.25;11.07;;;19.10;91.80;;;;;;5032624;28;20036;-48
2023/06/11 02:47:45;;;;;;;13.70;10.50;;;19.20;91.90;;;;;;5032903;28;20037;-48
2023/06/11 02:50:31;;;;;;;12.15;10.73;;;19.20;92.00;;;;;;5032892;28;20068;-51
2023/06/11 02:53:17;;;;;;;13.68;10.95;;;19.30;91.70;;;;;;5033158;28;20029;-47
2023/06/11 02:56:03;;;;;;;12.75;10.60;;;19.40;91.70;;;;;;5032989;28;20029;-47
2023/06/11 02:58:49;;;;;;;12.45;11.25;;;19.40;91.70;;;;;;5026377;28;20487;-47
2023/06/11 03:01:35;;;;;;;12.60;11.07;;;19.30;91.80;;;;;;5015653;28;20502;-48
2023/06/11 03:04:21;;;;;;;13.70;10.73;;;19.40;91.90;;;;;;5016053;28;20026;-47
2023/06/11 03:07:07;;;;;;;12.25;11.05;;;19.30;92.00;;;;;;5013992;28;20034;-46
2023/06/11 03:09:53;;;;;;;14.88;11.18;;;19.40;92.10;;;;;;5014779;28;20033;-47
2023/06/11 03:12:39;;;;;;;12.32;10.75;;;19.40;92.10;;;;;;5014663;28;20092;-47
2023/06/11 03:15:25;;;;;;;14.48;12.18;;;19.30;91.90;;;;;;5014080;28;20030;-50
2023/06/11 03:18:12;;;;;;;12.70;11.40;;;19.20;91.90;;;;;;5013443;28;20443;-50
2023/06/11 03:20:57;;;;;;;14.80;11.50;;;19.20;92.00;;;;;;5014830;28;20447;-46
2023/06/11 03:23:43;;;;;;;13.93;11.65;;;19.20;92.20;;;;;;5013385;28;20034;-46
2023/06/11 03:26:29;;;;;;;14.10;10.77;;;19.20;92.30;;;;;;5012613;28;20057;-49
2023/06/11 03:29:15;;;;;;;14.52;11.27;;;19.20;92.30;;;;;;5011156;28;20481;-49
2023/06/11 03:32:01;;;;;;;13.30;11.73;;;19.30;92.10;;;;;;5023230;28;20433;-51
2023/06/11 03:34:47;;;;;;;11.35;10.05;;;19.40;91.90;;;;;;5032443;28;20456;-51
2023/06/11 03:37:33;;;;;;;15.27;10.55;;;19.50;92.00;;;;;;5030955;28;20021;-49
2023/06/11 03:40:19;;;;;;;12.20;10.95;;;19.50;91.80;;;;;;5017386;28;20033;-47
2023/06/11 03:43:05;;;;;;;12.35;10.15;;;19.50;91.60;;;;;;5026142;28;20104;-46
2023/06/11 03:45:51;;;;;;;12.10;10.90;;;19.50;91.70;;;;;;5033020;28;20387;-47
2023/06/11 03:48:37;;;;;;;14.70;10.43;;;19.60;91.60;;;;;;5030399;28;20037;-46
2023/06/11 03:51:23;;;;;;;11.32;9.75;;;19.70;91.30;;;;;;5032731;28;20485;-46
2023/06/11 03:54:09;;;;;;;11.27;9.38;;;19.70;90.90;;;;;;5032136;28;20087;-47
2023/06/11 03:56:55;;;;;;;12.93;11.20;;;19.80;90.80;;;;;;5030743;28;20109;-45
2023/06/11 03:59:41;;;;;;;11.43;10.23;;;19.80;90.30;;;;;;5033476;28;20460;-49
2023/06/11 04:02:27;;;;;;;11.48;9.65;;;19.80;90.50;;;;;;5031393;28;20112;-48
2023/06/11 04:05:13;;;;;;;11.60;10.30;;;19.80;90.70;;;;;;5033258;28;20441;-50
2023/06/11 04:07:59;;;;;;;19.35;11.23;;;19.70;90.40;;;;;;5031219;28;20105;-48
2023/06/11 04:10:45;;;;;;;11.45;10.15;;;19.70;90.30;;;;;;5031830;28;20033;-51
2023/06/11 04:13:31;;;;;;;11.40;10.13;;;19.60;90.70;;;;;;5013224;28;20466;-50
2023/06/11 04:16:17;;;;;;;13.40;10.15;;;19.60;91.00;;;;;;5012260;28;20040;-48
2023/06/11 04:19:03;;;;;;;11.80;10.60;;;19.60;91.20;;;;;;5011460;28;20038;-50
2023/06/11 04:21:49;;;;;;;12.25;9.20;;;19.50;91.30;;;;;;5013575;28;20030;-49
2023/06/11 04:24:35;;;;;;;12.10;9.90;;;19.30;88.50;;;;;;5012553;28;20026;-48
2023/06/11 04:27:21;;;;;;;10.30;8.77;;;19.30;87.70;;;;;;5025478;28;20021;-49
2023/06/11 04:30:09;;;;;;;10.25;8.93;;;19.40;85.60;;;;;;5024971;28;20030;-49
2023/06/11 04:32:54;;;;;;;10.27;8.40;;;19.40;84.80;;;;;;5032507;28;20029;-50
2023/06/11 04:35:40;;;;;;;10.52;8.18;;;19.40;85.00;;;;;;5031401;28;20033;-49
2023/06/11 04:38:28;;;;;;;9.63;8.32;;;19.40;84.40;;;;;;5015144;28;20494;-52
2023/06/11 04:41:14;;;;;;;17.90;8.90;;;19.40;84.50;;;;;;5015611;28;20489;-52
2023/06/11 04:44:00;;;;;;;10.52;8.32;;;19.40;84.10;;;;;;5014116;28;20045;-52
2023/06/11 04:46:47;;;;;;;14.23;8.88;;;19.40;84.40;;;;;;5012814;28;20022;-50
2023/06/11 04:49:33;;;;;;;12.32;8.55;;;19.50;83.90;;;;;;5012887;28;20026;-51
2023/06/11 04:52:21;;;;;;;10.10;8.10;;;19.50;83.70;;;;;;5012734;28;20087;-48
2023/06/11 04:55:09;;;;;;;10.23;8.05;;;19.60;83.40;;;;;;5020817;28;20045;-49
2023/06/11 04:57:56;;;;;;;9.80;7.97;;;19.70;83.10;;;;;;5032831;28;20473;-49
2023/06/11 05:00:46;;;;;;;14.63;8.68;;;19.80;82.00;;;;;;5026275;28;20056;-50
2023/06/11 05:03:36;;;;;;;9.25;8.18;;;19.90;81.50;;;;;;5012007;28;20023;-50
2023/06/11 05:06:23;;;;;;;9.95;8.07;;;19.90;81.00;;;;;;5012483;28;20038;-50
2023/06/11 05:09:09;;;;;;;10.98;7.80;;;20.00;81.00;;;;;;5012791;28;20034;-47
2023/06/11 05:11:55;;;;;;;12.88;8.75;;;20.10;81.10;;;;;;5012305;28;20511;-54
2023/06/11 05:14:42;;;;;;;9.35;8.10;;;20.10;81.00;;;;;;5027376;28;20061;-53
2023/06/11 05:17:28;;;;;;;15.52;8.45;;;20.10;81.20;;;;;;5036364;28;20104;-52
2023/06/11 05:20:15;;;;;;;11.80;8.45;;;20.20;80.70;;;;;;5036623;28;20509;-51
2023/06/11 05:23:03;;;;;;;9.45;7.50;;;20.30;80.30;;;;;;5036125;28;20034;-53
2023/06/11 05:25:50;;;;;;;12.23;7.90;;;20.40;80.30;;;;;;5038282;28;20033;-51
2023/06/11 05:28:36;;;;;;;12.77;8.30;;;20.40;79.90;;;;;;5037800;28;20041;-57
2023/06/11 05:31:23;;;;;;;10.57;7.65;;;20.40;79.70;;;;;;5035239;28;20410;-51
2023/06/11 05:34:10;;;;;;;9.40;7.35;;;20.30;79.50;;;;;;5020487;28;20026;-50
2023/06/11 05:36:55;;;;;;;10.93;7.80;;;20.30;79.00;;;;;;5019195;28;20034;-51
2023/06/11 05:39:42;;;;;;;10.35;7.28;;;20.50;79.20;;;;;;5015744;28;20025;-51
2023/06/11 05:42:27;;;;;;;10.70;7.40;;;20.50;79.20;;;;;;5016135;28;20045;-50
2023/06/11 05:45:13;;;;;;;12.48;8.00;;;20.50;78.30;;;;;;5016764;28;20026;-50
2023/06/11 05:48:00;;;;;;;12.30;7.68;;;20.50;79.00;;;;;;5027883;28;20032;-49
2023/06/11 05:50:46;;;;;;;10.93;7.68;;;20.70;78.90;;;;;;5034340;28;20045;-50
2023/06/11 05:53:32;;;;;;;8.85;7.78;;;20.80;79.20;;;;;;5036269;28;20552;-48
2023/06/11 05:56:18;;;;;;;12.23;6.90;;;20.70;78.40;;;;;;5034862;28;20068;-49
2023/06/11 05:59:04;;;;;;;10.95;7.88;;;20.60;78.70;;;;;;5034710;28;20029;-51
2023/06/11 06:01:51;;;;;;;10.75;7.45;;;20.70;78.70;;;;;;5034496;28;20018;-51
2023/06/11 06:04:37;;;;;;;11.55;8.23;;;20.80;79.60;;;;;;5034742;28;20490;-50
2023/06/11 06:07:23;;;;;;;11.88;8.05;;;20.80;78.30;;;;;;5034406;28;20064;-49
2023/06/11 06:10:09;;;;;;;10.82;7.72;;;20.80;78.30;;;;;;5015614;28;20034;-49
2023/06/11 06:12:55;;;;;;;11.95;7.93;;;20.70;78.30;;;;;;5015017;28;20529;-49
2023/06/11 06:15:41;;;;;;;8.88;6.63;;;20.80;77.90;;;;;;5014740;28;20439;-49
2023/06/11 06:18:28;;;;;;;13.40;7.65;;;20.70;78.20;;;;;;5015020;28;20084;-52
2023/06/11 06:21:14;;;;;;;11.85;7.57;;;20.70;78.20;;;;;;5018887;28;20034;-50
2023/06/11 06:24:00;;;;;;;11.50;7.28;;;20.80;78.20;;;;;;5035749;28;20021;-49
2023/06/11 06:26:47;;;;;;;11.27;7.93;;;20.90;77.80;;;;;;5033561;28;20057;-49
2023/06/11 06:29:33;;;;;;;9.93;6.60;;;20.80;78.00;;;;;;5038044;28;20096;-48
2023/06/11 06:32:19;;;;;;;9.90;7.53;;;20.70;77.60;;;;;;5032821;28;20029;-50
2023/06/11 06:35:07;;;;;;;10.40;7.75;;;20.70;78.00;;;;;;5036808;28;20034;-52
2023/06/11 06:37:53;;;;;;;12.50;7.05;;;20.70;78.60;;;;;;5036052;28;20048;-51
2023/06/11 06:40:39;;;;;;;14.27;7.50;;;20.80;78.40;;;;;;5036183;28;20044;-53
2023/06/11 06:43:25;;;;;;;9.52;7.35;;;21.00;78.20;;;;;;5037018;28;20387;-50
2023/06/11 06:46:11;;;;;;;9.52;7.53;;;21.10;78.20;;;;;;5031489;28;20025;-52
2023/06/11 06:48:57;;;;;;;10.70;7.97;;;21.20;78.30;;;;;;5026122;28;20038;-51
2023/06/11 06:51:43;;;;;;;9.88;7.22;;;21.40;78.20;;;;;;5024264;28;20056;-54
2023/06/11 06:54:28;;;;;;;10.02;6.95;;;21.50;78.60;;;;;;5025120;28;20482;-51
2023/06/11 06:57:15;;;;;;;8.23;7.10;;;21.50;77.90;;;;;;5024148;28;20018;-54
2023/06/11 07:00:01;;;;;;;9.57;7.13;;;21.50;78.00;;;;;;5025950;28;20033;-54
2023/06/11 07:02:47;;;;;;;8.88;7.43;;;21.60;77.90;;;;;;5032925;28;20497;-54
2023/06/11 07:05:33;;;;;;;9.73;7.35;;;21.80;77.60;;;;;;5034458;28;20041;-54
2023/06/11 07:08:19;;;;;;;9.27;7.15;;;21.70;77.30;;;;;;5034472;28;20017;-52
2023/06/11 07:11:05;;;;;;;10.57;7.70;;;21.60;77.70;;;;;;5032987;28;20490;-53
2023/06/11 07:13:51;;;;;;;10.35;7.85;;;21.70;77.70;;;;;;5012833;28;20510;-52
2023/06/11 07:16:37;;;;;;;13.95;7.82;;;21.60;77.70;;;;;;5012990;28;20040;-55
2023/06/11 07:19:23;;;;;;;12.80;7.75;;;21.60;77.70;;;;;;5013682;28;20087;-54
2023/06/11 07:22:09;;;;;;;7.82;7.03;;;21.70;78.00;;;;;;5030013;28;20117;-55
2023/06/11 07:24:56;;;;;;;8.00;6.60;;;21.80;78.20;;;;;;5032879;28;20041;-56
2023/06/11 07:27:42;;;;;;;7.95;7.15;;;21.90;78.00;;;;;;5033762;28;20025;-54
2023/06/11 07:30:29;;;;;;;11.57;7.90;;;22.10;77.80;;;;;;5033075;28;20033;-50
2023/06/11 07:33:17;;;;;;;11.07;8.00;;;22.20;78.30;;;;;;5018207;28;20041;-52
2023/06/11 07:36:03;;;;;;;8.35;7.22;;;22.30;77.70;;;;;;5013686;28;20026;-51
2023/06/11 07:38:49;;;;;;;9.05;7.45;;;22.40;77.60;;;;;;5013073;28;20471;-49
2023/06/11 07:41:36;;;;;;;12.73;7.90;;;22.50;77.50;;;;;;5013717;28;20058;-49
2023/06/11 07:44:22;;;;;;;12.57;8.40;;;22.50;77.40;;;;;;5013455;28;20045;-49
2023/06/11 07:47:08;;;;;;;10.75;7.53;;;22.40;77.30;;;;;;5012608;28;20024;-52
2023/06/11 07:49:54;;;;;;;10.82;7.68;;;22.30;77.80;;;;;;5012680;28;20505;-50
2023/06/11 07:52:40;;;;;;;8.60;7.20;;;22.40;78.00;;;;;;5013283;28;20034;-49
2023/06/11 07:55:26;;;;;;;9.32;6.80;;;22.50;77.70;;;;;;5013746;28;20080;-49
2023/06/11 07:58:12;;;;;;;12.05;7.75;;;22.60;77.50;;;;;;5012269;28;20109;-48
2023/06/11 08:00:58;;;;;;;10.75;7.95;;;22.70;77.70;;;;;;5028808;28;20088;-50
2023/06/11 08:03:44;;;;;;;14.55;9.27;;;22.80;77.70;;;;;;5029416;28;20076;-49
2023/06/11 08:06:30;;;;;;;10.90;7.75;;;22.70;77.60;;;;;;5031534;28;20040;-49
2023/06/11 08:09:16;;;;;;;16.40;11.38;;;22.70;78.00;;;;;;5030422;28;20041;-50
2023/06/11 08:12:03;;;;;;;14.10;11.02;;;22.80;77.80;;;;;;5029909;28;20072;-49
2023/06/11 08:14:50;;;;;;;9.80;7.80;;;22.80;77.60;;;;;;5019632;28;20393;-52
2023/06/11 08:17:36;;;;;;;17.17;9.05;;;22.90;77.80;;;;;;5020762;28;20175;-48
2023/06/11 08:20:22;;;;;;;9.30;8.32;;;23.10;77.90;;;;;;5023869;28;20022;-49
2023/06/11 08:23:08;;;;;;;7.88;6.80;;;23.10;77.70;;;;;;5022623;28;20026;-49
2023/06/11 08:25:58;;;;;;;9.95;7.35;;;23.10;77.90;;;;;;5018860;28;20030;-52
2023/06/11 08:28:44;;;;;;;9.38;7.75;;;23.00;77.80;;;;;;5024657;28;20445;-50
2023/06/11 08:31:30;;;;;;;8.98;7.47;;;23.10;77.80;;;;;;5021370;28;20026;-55
2023/06/11 08:34:16;;;;;;;7.97;6.82;;;23.20;78.00;;;;;;5032740;28;20053;-49
2023/06/11 08:37:03;;;;;;;9.27;7.28;;;23.30;77.50;;;;;;5026221;28;20029;-48
2023/06/11 08:39:49;;;;;;;10.75;6.50;;;23.50;77.30;;;;;;5028976;28;20084;-48
2023/06/11 08:42:35;;;;;;;8.13;7.15;;;23.40;78.20;;;;;;5032276;28;20055;-48
2023/06/11 08:45:21;;;;;;;7.38;6.68;;;23.50;77.70;;;;;;5020433;28;20025;-46
2023/06/11 08:48:09;;;;;;;8.30;7.00;;;23.50;77.40;;;;;;5031509;28;20033;-54
2023/06/11 08:50:55;;;;;;;9.55;7.63;;;23.70;77.40;;;;;;5029469;28;20186;-50
2023/06/11 08:53:41;;;;;;;9.65;7.00;;;23.50;78.30;;;;;;5023038;28;20033;-48
2023/06/11 08:56:27;;;;;;;12.75;7.10;;;23.50;79.00;;;;;;5017083;28;20061;-54
2023/06/11 08:59:13;;;;;;;10.60;7.57;;;23.60;78.50;;;;;;5017280;28;20033;-51
2023/06/11 09:02:00;;;;;;;10.80;7.10;;;23.70;78.40;;;;;;5032992;28;20109;-54
2023/06/11 09:04:47;;;;;;;9.50;7.32;;;23.80;78.20;;;;;;5026145;28;20068;-52
2023/06/11 09:07:33;;;;;;;10.75;6.97;;;23.90;77.80;;;;;;5016665;28;20037;-50
2023/06/11 09:10:20;;;;;;;12.43;7.97;;;23.70;78.10;;;;;;5012850;28;20034;-51
2023/06/11 09:13:08;;;;;;;12.15;7.40;;;23.70;78.50;;;;;;5015550;28;20433;-51
2023/06/11 09:15:57;;;;;;;9.20;7.40;;;23.80;78.60;;;;;;5015141;28;20041;-49
2023/06/11 09:18:43;;;;;;;12.27;7.43;;;24.10;78.00;;;;;;5015757;28;20430;-52
2023/06/11 09:21:29;;;;;;;12.50;7.50;;;24.20;77.00;;;;;;5022391;28;20506;-48
2023/06/11 09:24:18;;;;;;;10.63;6.97;;;24.10;76.00;;;;;;5016296;28;20404;-49
2023/06/11 09:27:06;;;;;;;9.50;6.65;;;24.30;75.60;;;;;;5029175;28;20097;-52
2023/06/11 09:29:52;;;;;;;10.15;7.05;;;24.60;75.20;;;;;;5018846;28;20117;-50
2023/06/11 09:32:40;;;;;;;9.75;8.50;;;24.80;75.00;;;;;;5026262;28;20029;-51
2023/06/11 09:35:25;;;;;;;12.43;9.70;;;24.90;73.60;;;;;;5029567;28;20049;-52
2023/06/11 09:38:16;;;;;;;9.60;7.30;;;24.90;73.90;;;;;;5028211;28;21414;-50
2023/06/11 09:41:05;;;;;;;8.57;7.30;;;25.10;73.60;;;;;;5023891;28;20163;-48
2023/06/11 09:43:52;;;;;;;14.82;7.35;;;25.30;73.30;;;;;;5031158;28;20065;-46
2023/06/11 09:46:38;;;;;;;9.45;8.40;;;25.40;73.00;;;;;;5022988;28;20034;-50
2023/06/11 09:49:25;;;;;;;8.30;7.50;;;25.50;72.40;;;;;;5019892;28;20586;-47
2023/06/11 09:52:11;;;;;;;13.13;7.35;;;25.60;71.60;;;;;;5023686;28;20041;-52
2023/06/11 09:54:59;;;;;;;8.23;7.03;;;25.50;72.10;;;;;;5027706;28;20043;-56
2023/06/11 09:57:45;;;;;;;9.80;7.25;;;25.30;68.80;;;;;;5025242;28;20037;-51
2023/06/11 10:00:33;;;;;;;9.75;7.07;;;25.40;68.70;;;;;;5029330;28;20532;-48
2023/06/11 10:03:19;;;;;;;10.27;6.53;;;25.50;67.30;;;;;;5025405;28;20096;-54
2023/06/11 10:06:09;;;;;;;8.90;6.80;;;25.40;67.80;;;;;;5025712;28;20097;-52
2023/06/11 10:09:03;;;;;;;9.20;7.03;;;25.50;68.70;;;;;;5021741;28;20580;-50
2023/06/11 10:11:49;;;;;;;13.50;7.00;;;25.60;68.00;;;;;;5025422;28;20029;-52
2023/06/11 10:14:39;;;;;;;7.80;6.70;;;25.60;65.50;;;;;;5035877;28;20048;-53
2023/06/11 10:17:25;;;;;;;8.55;6.38;;;25.70;66.40;;;;;;5032775;28;20205;-50
2023/06/11 10:20:19;;;;;;;9.10;7.18;;;25.90;66.30;;;;;;5028616;28;20144;-49
2023/06/11 10:23:06;;;;;;;10.32;7.80;;;25.90;66.60;;;;;;5029571;28;20021;-49
2023/06/11 10:25:54;;;;;;;12.70;8.27;;;26.20;67.10;;;;;;5018953;28;20038;-50
2023/06/11 10:28:49;;;;;;;8.95;7.47;;;26.20;66.10;;;;;;5035372;28;20360;-49
2023/06/11 10:31:39;;;;;;;9.13;7.93;;;26.00;66.70;;;;;;5031545;28;20029;-50
2023/06/11 10:34:25;;;;;;;9.00;6.85;;;25.90;67.50;;;;;;5016784;28;20034;-54
2023/06/11 10:37:15;;;;;;;10.57;7.00;;;26.00;66.90;;;;;;5017785;28;20033;-53
2023/06/11 10:40:01;;;;;;;8.27;7.03;;;26.20;67.00;;;;;;5018243;28;20025;-51
2023/06/11 10:42:54;;;;;;;10.02;7.10;;;26.20;66.00;;;;;;5030614;28;20030;-48
2023/06/11 10:45:40;;;;;;;8.70;6.20;;;26.30;66.50;;;;;;5021384;28;20041;-51
2023/06/11 10:48:30;;;;;;;9.43;6.85;;;26.50;65.80;;;;;;5013963;28;20109;-52
2023/06/11 10:51:16;;;;;;;12.10;6.78;;;26.30;63.10;;;;;;5014273;28;20041;-53
2023/06/11 10:54:03;;;;;;;9.02;6.63;;;26.10;62.60;;;;;;5012745;28;20514;-52
2023/06/11 10:56:50;;;;;;;9.35;7.05;;;26.10;63.10;;;;;;5018826;28;20513;-53
2023/06/11 10:59:36;;;;;;;12.50;7.50;;;26.30;63.30;;;;;;5033392;28;20037;-48
2023/06/11 11:02:23;;;;;;;8.50;6.30;;;26.40;62.70;;;;;;5024752;28;20033;-49
2023/06/11 11:05:10;;;;;;;9.57;6.65;;;26.50;62.00;;;;;;5026768;28;20033;-49
2023/06/11 11:07:58;;;;;;;10.82;6.88;;;26.60;61.90;;;;;;5024288;28;20037;-55
2023/06/11 11:10:44;;;;;;;8.18;6.28;;;26.60;61.20;;;;;;5016912;28;20448;-53
2023/06/11 11:13:31;;;;;;;12.73;7.15;;;26.70;61.20;;;;;;5024974;28;20026;-55
2023/06/11 11:16:20;;;;;;;8.07;7.30;;;26.60;61.00;;;;;;5030325;28;20120;-51
2023/06/11 11:19:06;;;;;;;7.60;6.28;;;26.80;60.30;;;;;;5028416;28;20040;-55
2023/06/11 11:21:52;;;;;;;10.70;6.65;;;26.50;60.00;;;;;;5029729;28;20056;-55
2023/06/11 11:24:38;;;;;;;8.88;5.80;;;26.60;59.70;;;;;;5026823;28;20486;-55
2023/06/11 11:27:24;;;;;;;10.60;6.22;;;26.50;58.90;;;;;;5033239;28;20041;-55
2023/06/11 11:30:10;;;;;;;9.98;6.55;;;26.50;59.10;;;;;;5018090;28;20061;-54
2023/06/11 11:32:56;;;;;;;9.48;6.55;;;26.30;58.90;;;;;;5013631;28;20033;-55
2023/06/11 11:35:48;;;;;;;8.32;6.60;;;26.30;59.00;;;;;;5025799;28;20033;-54
2023/06/11 11:38:37;;;;;;;7.13;6.18;;;26.50;59.30;;;;;;5024506;28;20050;-54
2023/06/11 11:41:23;;;;;;;9.15;6.70;;;26.60;58.20;;;;;;5032703;28;20033;-50
2023/06/11 11:44:09;;;;;;;7.63;6.82;;;26.80;58.70;;;;;;5027662;28;20125;-49
2023/06/11 11:46:56;;;;;;;7.88;6.57;;;27.00;58.90;;;;;;5024321;28;20030;-49
2023/06/11 11:49:44;;;;;;;7.63;6.78;;;27.10;58.50;;;;;;5031709;28;20032;-53
2023/06/11 11:52:31;;;;;;;11.23;7.13;;;27.10;58.20;;;;;;5025535;28;20061;-55
2023/06/11 11:55:17;;;;;;;7.82;6.60;;;27.10;58.30;;;;;;5035441;28;20034;-51
2023/06/11 11:58:08;;;;;;;9.18;6.53;;;27.10;58.50;;;;;;5027840;28;20048;-57
2023/06/11 12:00:58;;;;;;;8.82;6.82;;;27.10;59.10;;;;;;5032969;28;20180;-56
2023/06/11 12:03:54;;;;;;;10.23;7.38;;;27.10;59.50;;;;;;5018312;28;20055;-56
2023/06/11 12:06:40;;;;;;;10.80;7.15;;;27.20;59.70;;;;;;5026452;28;20115;-59
2023/06/11 12:09:26;;;;;;;9.88;7.32;;;27.10;59.40;;;;;;5027774;28;20033;-58
2023/06/11 12:12:12;;;;;;;8.38;7.25;;;27.30;59.60;;;;;;5024077;28;20168;-55
2023/06/11 12:14:58;;;;;;;9.93;7.57;;;27.20;59.50;;;;;;5032463;28;20033;-57
2023/06/11 12:17:45;;;;;;;8.63;7.22;;;27.20;59.90;;;;;;5024323;28;20498;-57
2023/06/11 12:20:31;;;;;;;9.60;7.65;;;27.00;59.80;;;;;;5029260;28;20030;-56
2023/06/11 12:23:17;;;;;;;11.38;7.78;;;26.90;60.20;;;;;;5033123;28;20379;-57
2023/06/11 12:26:03;;;;;;;8.38;7.50;;;26.90;60.50;;;;;;5027746;28;20025;-57
2023/06/11 12:28:49;;;;;;;9.38;7.47;;;26.80;60.10;;;;;;5031599;28;20113;-56
2023/06/11 12:31:37;;;;;;;9.30;7.40;;;26.90;60.60;;;;;;5021107;28;20037;-55
2023/06/11 12:34:22;;;;;;;9.98;7.93;;;27.10;60.60;;;;;;5032509;28;20033;-55
2023/06/11 12:37:10;;;;;;;11.05;7.45;;;27.40;60.00;;;;;;5031753;28;20029;-56
2023/06/11 12:39:56;;;;;;;11.07;7.90;;;27.50;60.10;;;;;;5033114;28;20072;-57
2023/06/11 12:42:42;;;;;;;8.82;7.40;;;27.70;60.40;;;;;;5031359;28;20018;-57
2023/06/11 12:45:30;;;;;;;8.93;7.65;;;27.90;60.90;;;;;;5027662;28;20033;-57
2023/06/11 12:48:16;;;;;;;9.32;7.75;;;28.10;60.90;;;;;;5031825;28;20026;-57
2023/06/11 12:51:02;;;;;;;9.30;7.78;;;28.10;60.80;;;;;;5031722;28;20052;-57
2023/06/11 12:53:51;;;;;;;8.90;8.10;;;28.30;61.10;;;;;;5032216;28;20498;-57
2023/06/11 12:56:37;;;;;;;8.50;7.60;;;28.30;60.70;;;;;;5018753;28;20499;-59
2023/06/11 12:59:23;;;;;;;7.53;6.82;;;28.60;60.60;;;;;;5013304;28;20529;-58
2023/06/11 13:02:11;;;;;;;9.07;7.28;;;28.90;60.20;;;;;;5011844;28;20029;-58
2023/06/11 13:04:57;;;;;;;9.07;7.65;;;29.00;59.70;;;;;;5011556;28;20117;-58
2023/06/11 13:07:44;;;;;;;9.73;7.22;;;29.00;60.10;;;;;;5012669;28;20034;-58
2023/06/11 13:10:30;;;;;;;8.30;7.50;;;29.10;60.30;;;;;;5011842;28;20032;-57
2023/06/11 13:13:16;;;;;;;8.30;7.45;;;29.40;59.70;;;;;;5011178;28;20034;-55
2023/06/11 13:16:02;;;;;;;9.35;7.90;;;29.30;59.60;;;;;;5016733;28;20030;-58
2023/06/11 13:18:48;;;;;;;8.80;7.65;;;29.40;59.80;;;;;;5012525;28;20117;-57
2023/06/11 13:21:34;;;;;;;9.93;7.68;;;29.30;59.30;;;;;;5012114;28;20096;-54
2023/06/11 13:24:23;;;;;;;8.75;7.88;;;29.40;59.50;;;;;;5013006;28;20562;-52
2023/06/11 13:27:09;;;;;;;8.68;7.88;;;29.70;59.70;;;;;;5011631;28;20026;-50
2023/06/11 13:29:56;;;;;;;10.15;7.82;;;29.80;59.10;;;;;;5017203;28;20034;-53
2023/06/11 13:32:42;;;;;;;8.88;7.97;;;29.50;59.30;;;;;;5031456;28;20033;-56
2023/06/11 13:35:28;;;;;;;10.50;8.45;;;29.60;59.80;;;;;;5032719;28;20025;-58
2023/06/11 13:38:14;;;;;;;9.35;8.38;;;29.80;60.00;;;;;;5034944;28;20030;-57
2023/06/11 13:41:03;;;;;;;9.85;8.88;;;29.90;59.40;;;;;;5037302;28;20033;-56
2023/06/11 13:43:49;;;;;;;9.23;7.95;;;29.70;59.40;;;;;;5033675;28;20032;-58
2023/06/11 13:46:35;;;;;;;15.73;9.02;;;29.40;59.30;;;;;;5035841;28;20033;-59
2023/06/11 13:49:21;;;;;;;10.27;9.23;;;29.10;59.40;;;;;;5034330;28;20017;-57
2023/06/11 13:52:07;;;;;;;10.52;9.07;;;28.70;60.20;;;;;;5036449;28;20041;-57
2023/06/11 13:54:53;;;;;;;12.10;9.13;;;28.70;61.00;;;;;;5034096;28;20057;-58
2023/06/11 13:57:41;;;;;;;9.48;8.57;;;28.90;60.70;;;;;;5034325;28;20443;-57
2023/06/11 14:00:27;;;;;;;9.02;8.20;;;29.20;60.70;;;;;;5034779;28;20037;-57
2023/06/11 14:03:13;;;;;;;11.02;8.77;;;29.50;60.30;;;;;;5033823;28;20101;-58
2023/06/11 14:05:59;;;;;;;9.43;8.48;;;29.80;60.00;;;;;;5033077;28;20021;-57
2023/06/11 14:08:46;;;;;;;9.77;8.88;;;30.00;59.90;;;;;;5035349;28;20017;-58
2023/06/11 14:11:32;;;;;;;8.95;8.15;;;30.10;60.40;;;;;;5023124;28;20034;-57
2023/06/11 14:14:18;;;;;;;11.27;8.65;;;29.80;58.90;;;;;;5014418;28;20116;-57
2023/06/11 14:17:05;;;;;;;10.93;8.70;;;29.30;60.10;;;;;;5013702;28;20037;-58
2023/06/11 14:19:51;;;;;;;10.25;9.25;;;28.90;59.80;;;;;;5015061;28;20121;-59